createdAt,value
2019-04-25T00:01:52.377Z,18.17
2019-04-25T00:04:19.063Z,20.33
2019-04-25T00:06:45.637Z,23.63
2019-04-25T00:09:12.283Z,17.60
2019-04-25T00:11:39.890Z,21.83
2019-04-25T00:14:06.548Z,23.13
2019-04-25T00:16:36.918Z,27.58
2019-04-25T00:19:03.775Z,21.03
2019-04-25T00:21:32.051Z,20.27
2019-04-25T00:24:02.630Z,20.87
2019-04-25T00:26:32.683Z,21.23
2019-04-25T00:28:59.036Z,15.33
2019-04-25T00:31:31.885Z,17.37
2019-04-25T00:33:59.183Z,26.97
2019-04-25T00:36:25.562Z,14.77
2019-04-25T00:38:54.312Z,18.37
2019-04-25T00:41:23.689Z,16.53
2019-04-25T00:43:53.606Z,25.37
2019-04-25T00:46:22.577Z,21.00
2019-04-25T00:48:52.586Z,20.00
2019-04-25T00:51:19.542Z,19.43
2019-04-25T00:53:48.151Z,24.30
2019-04-25T00:56:15.404Z,19.80
2019-04-25T00:58:43.965Z,23.27
2019-04-25T01:01:15.105Z,17.80
2019-04-25T01:03:45.301Z,23.10
2019-04-25T01:06:13.224Z,24.27
2019-04-25T01:08:41.422Z,27.03
2019-04-25T01:11:11.539Z,21.13
2019-04-25T01:13:37.916Z,18.83
2019-04-25T01:16:05.181Z,22.23
2019-04-25T01:18:33.597Z,19.40
2019-04-25T01:21:05.146Z,19.73
2019-04-25T01:23:33.555Z,15.20
2019-04-25T01:26:00.606Z,23.77
2019-04-25T01:28:27.291Z,22.97
2019-04-25T01:30:56.802Z,24.40
2019-04-25T01:33:23.553Z,16.73
2019-04-25T01:35:54.283Z,20.67
2019-04-25T01:38:20.842Z,16.27
2019-04-25T01:40:49.425Z,17.57
2019-04-25T01:43:16.364Z,19.57
2019-04-25T01:45:44.264Z,19.17
2019-04-25T01:48:13.638Z,24.43
2019-04-25T01:50:39.510Z,24.43
2019-04-25T01:53:08.870Z,18.27
2019-04-25T01:55:37.575Z,14.50
2019-04-25T01:58:05.087Z,21.83
2019-04-25T02:00:35.132Z,18.23
2019-04-25T02:03:04.348Z,20.43
2019-04-25T02:05:31.719Z,20.30
2019-04-25T02:08:00.620Z,13.63
2019-04-25T02:10:27.687Z,22.07
2019-04-25T02:12:58.086Z,21.73
2019-04-25T02:15:26.917Z,20.52
2019-04-25T02:17:57.168Z,18.70
2019-04-25T02:20:24.370Z,16.57
2019-04-25T02:22:52.251Z,17.90
2019-04-25T02:25:20.153Z,18.77
2019-04-25T02:27:46.756Z,18.23
2019-04-25T02:30:15.816Z,18.07
2019-04-25T02:32:44.409Z,26.07
2019-04-25T02:35:14.205Z,13.70
2019-04-25T02:37:45.243Z,20.20
2019-04-25T02:40:13.981Z,13.87
2019-04-25T02:42:44.256Z,21.23
2019-04-25T02:45:16.264Z,17.80
2019-04-25T02:47:44.121Z,20.93
2019-04-25T02:50:09.946Z,24.90
2019-04-25T02:52:40.609Z,21.43
2019-04-25T02:55:10.810Z,19.57
2019-04-25T02:57:38.340Z,12.77
2019-04-25T03:00:08.756Z,21.73
2019-04-25T03:02:37.036Z,23.00
2019-04-25T03:05:09.249Z,24.30
2019-04-25T03:07:36.095Z,21.03
2019-04-25T03:10:06.212Z,22.83
2019-04-25T03:12:36.311Z,22.00
2019-04-25T03:15:05.436Z,18.63
2019-04-25T03:17:34.261Z,22.20
2019-04-25T03:20:06.667Z,25.57
2019-04-25T03:22:35.234Z,24.97
2019-04-25T03:25:06.785Z,18.20
2019-04-25T03:27:33.931Z,30.70
2019-04-25T03:30:04.455Z,25.63
2019-04-25T03:32:31.464Z,33.60
2019-04-25T03:34:58.137Z,20.10
2019-04-25T03:37:26.625Z,26.70
2019-04-25T03:39:57.733Z,19.97
2019-04-25T03:42:30.414Z,15.32
2019-04-25T03:44:56.990Z,17.50
2019-04-25T03:47:27.213Z,16.73
2019-04-25T03:49:57.184Z,21.47
2019-04-25T03:52:30.268Z,21.47
2019-04-25T03:54:59.216Z,18.87
2019-04-25T03:57:28.170Z,22.83
2019-04-25T03:59:56.898Z,18.70
2019-04-25T04:02:25.129Z,27.90
2019-04-25T04:04:53.756Z,19.42
2019-04-25T04:07:24.320Z,18.47
2019-04-25T04:09:51.172Z,18.30
2019-04-25T04:12:18.579Z,20.08
2019-04-25T04:14:47.336Z,18.57
2019-04-25T04:17:16.228Z,21.53
2019-04-25T04:19:45.781Z,18.17
2019-04-25T04:22:16.268Z,21.07
2019-04-25T04:24:46.065Z,20.60
2019-04-25T04:27:16.730Z,23.50
2019-04-25T04:29:45.892Z,18.67
2019-04-25T04:32:16.313Z,18.70
2019-04-25T04:34:45.788Z,15.20
2019-04-25T04:37:16.260Z,21.57
2019-04-25T04:39:47.057Z,24.77
2019-04-25T04:42:17.918Z,22.53
2019-04-25T04:44:49.180Z,24.87
2019-04-25T04:47:18.535Z,20.87
2019-04-25T04:49:46.417Z,15.43
2019-04-25T04:52:16.759Z,18.67
2019-04-25T04:54:44.749Z,17.70
2019-04-25T04:57:23.123Z,19.47
2019-04-25T04:59:43.865Z,18.40
2019-04-25T05:02:09.312Z,15.05
2019-04-25T05:04:35.908Z,15.70
2019-04-25T05:07:08.696Z,16.43
2019-04-25T05:09:35.476Z,19.97
2019-04-25T05:12:04.377Z,19.73
2019-04-25T05:14:33.696Z,23.60
2019-04-25T05:17:04.350Z,24.12
2019-04-25T05:19:30.910Z,18.73
2019-04-25T05:21:59.966Z,18.30
2019-04-25T05:24:34.789Z,23.53
2019-04-25T05:26:59.582Z,23.57
2019-04-25T05:29:29.275Z,16.53
2019-04-25T05:31:57.897Z,20.90
2019-04-25T05:34:25.819Z,17.60
2019-04-25T05:36:53.869Z,23.63
2019-04-25T05:39:20.667Z,17.77
2019-04-25T05:41:47.313Z,18.77
2019-04-25T05:44:15.784Z,20.92
2019-04-25T05:46:43.759Z,21.50
2019-04-25T05:49:13.745Z,21.07
2019-04-25T05:51:40.911Z,21.77
2019-04-25T05:54:10.168Z,18.85
2019-04-25T05:56:36.742Z,19.83
2019-04-25T05:59:05.476Z,22.43
2019-04-25T06:01:32.192Z,18.90
2019-04-25T06:04:01.269Z,18.50
2019-04-25T06:06:30.349Z,17.10
2019-04-25T06:08:56.959Z,20.40
2019-04-25T06:11:23.964Z,14.80
2019-04-25T06:13:55.049Z,22.57
2019-04-25T06:16:27.055Z,22.97
2019-04-25T06:18:54.934Z,22.33
2019-04-25T06:21:23.591Z,25.10
2019-04-25T06:23:52.269Z,19.17
2019-04-25T06:26:29.937Z,24.43
2019-04-25T06:31:15.921Z,14.87
2019-04-25T06:33:44.303Z,15.27
2019-04-25T06:36:14.044Z,18.63
2019-04-25T06:46:04.335Z,20.80
2019-04-25T06:48:33.562Z,14.97
2019-04-25T07:05:59.713Z,16.70
2019-04-25T07:08:31.605Z,19.85
2019-04-25T07:11:03.899Z,12.70
2019-04-25T07:13:30.404Z,16.73
2019-04-25T07:15:57.236Z,10.47
2019-04-25T07:18:30.262Z,13.95
2019-04-25T07:20:55.573Z,15.37
2019-04-25T07:23:23.659Z,13.53
2019-04-25T07:25:50.904Z,14.70
2019-04-25T07:28:24.333Z,12.82
2019-04-25T07:30:51.644Z,10.80
2019-04-25T07:35:43.447Z,11.80
2019-04-25T07:38:14.141Z,13.20
2019-04-25T07:43:11.202Z,10.25
2019-04-25T07:45:41.476Z,12.85
2019-04-25T07:50:53.714Z,9.00
2019-04-25T07:53:24.025Z,7.90
2019-04-25T08:00:53.980Z,15.60
2019-04-25T08:03:20.811Z,13.80
2019-04-25T08:05:48.878Z,16.55
2019-04-25T08:08:19.332Z,13.20
2019-04-25T08:10:47.261Z,15.63
2019-04-25T08:13:14.653Z,12.45
2019-04-25T08:15:43.667Z,14.90
2019-04-25T08:18:11.657Z,15.97
2019-04-25T08:20:40.893Z,15.30
2019-04-25T08:23:11.808Z,12.00
2019-04-25T08:25:40.791Z,10.83
2019-04-25T08:28:08.734Z,8.85
2019-04-25T08:30:38.230Z,12.00
2019-04-25T08:33:07.556Z,8.05
2019-04-25T08:43:04.926Z,9.78
2019-04-25T08:45:37.032Z,13.30
2019-04-25T08:48:06.886Z,10.40
2019-04-25T08:50:39.303Z,9.77
2019-04-25T08:53:04.768Z,9.93
2019-04-25T08:55:32.996Z,9.33
2019-04-25T08:58:01.409Z,10.30
2019-04-25T09:00:28.273Z,7.97
2019-04-25T09:02:55.366Z,15.77
2019-04-25T09:05:36.033Z,11.75
2019-04-25T09:08:04.177Z,9.28
2019-04-25T09:10:31.272Z,8.67
2019-04-25T09:12:57.861Z,13.48
2019-04-25T09:15:27.106Z,10.50
2019-04-25T09:17:54.895Z,8.77
2019-04-25T09:20:24.210Z,10.68
2019-04-25T09:22:51.283Z,9.47
2019-04-25T09:25:26.788Z,9.07
2019-04-25T09:27:55.488Z,6.80
2019-04-25T09:30:25.117Z,11.73
2019-04-25T09:32:54.297Z,6.50
2019-04-25T09:35:25.656Z,3.62
2019-04-25T09:37:55.519Z,6.70
2019-04-25T09:40:24.897Z,8.70
2019-04-25T09:42:54.341Z,4.47
2019-04-25T09:45:26.145Z,7.80
2019-04-25T09:47:54.532Z,4.67
2019-04-25T09:50:21.478Z,6.03
2019-04-25T09:52:49.850Z,5.07
2019-04-25T09:55:16.428Z,4.17
2019-04-25T09:57:44.519Z,5.73
2019-04-25T10:00:13.258Z,4.03
2019-04-25T10:02:40.306Z,4.97
2019-04-25T10:05:07.710Z,4.07
2019-04-25T10:07:40.548Z,4.30
2019-04-25T10:10:08.655Z,7.95
2019-04-25T10:12:39.008Z,4.53
2019-04-25T10:15:05.895Z,5.87
2019-04-25T10:17:37.722Z,7.07
2019-04-25T10:20:08.987Z,4.70
2019-04-25T10:22:35.818Z,3.23
2019-04-25T10:25:04.752Z,7.67
2019-04-25T10:30:20.711Z,3.95
2019-04-25T10:32:48.723Z,6.83
2019-04-25T10:35:15.554Z,3.57
2019-04-25T10:37:46.562Z,7.40
2019-04-25T10:40:16.427Z,11.55
2019-04-25T10:42:46.456Z,6.43
2019-04-25T10:45:23.202Z,4.93
2019-04-25T10:47:45.316Z,7.10
2019-04-25T10:50:13.535Z,5.30
2019-04-25T10:52:44.505Z,5.33
2019-04-25T10:55:11.761Z,4.53
2019-04-25T10:57:39.681Z,4.43
2019-04-25T11:00:09.488Z,4.10
2019-04-25T11:02:37.324Z,8.83
2019-04-25T11:05:04.495Z,5.60
2019-04-25T11:07:34.065Z,6.23
2019-04-25T11:10:04.928Z,5.22
2019-04-25T11:12:33.792Z,5.37
2019-04-25T11:15:00.955Z,4.00
2019-04-25T11:17:33.886Z,4.28
2019-04-25T11:20:03.605Z,4.87
2019-04-25T11:22:29.239Z,4.35
2019-04-25T11:24:56.421Z,4.07
2019-04-25T11:27:25.046Z,5.63
2019-04-25T11:30:10.492Z,2.83
2019-04-25T11:32:26.731Z,4.90
2019-04-25T11:34:57.270Z,4.42
2019-04-25T11:37:23.916Z,3.20
2019-04-25T11:42:39.108Z,5.12
2019-04-25T11:45:08.829Z,4.77
2019-04-25T11:47:39.396Z,4.20
2019-04-25T11:50:22.258Z,4.30
2019-04-25T11:52:53.082Z,4.20
2019-04-25T11:55:21.800Z,4.80
2019-04-25T11:57:54.706Z,3.73
2019-04-25T12:00:24.021Z,3.67
2019-04-25T12:02:52.354Z,5.83
2019-04-25T12:05:23.479Z,2.52
2019-04-25T12:07:55.133Z,7.70
2019-04-25T12:10:30.536Z,4.77
2019-04-25T12:12:57.868Z,4.75
2019-04-25T12:15:24.762Z,6.43
2019-04-25T12:17:56.047Z,7.40
2019-04-25T12:20:22.964Z,4.34
2019-04-25T12:22:51.575Z,6.00
2019-04-25T12:25:19.959Z,2.73
2019-04-25T12:27:49.954Z,6.43
2019-04-25T12:30:19.759Z,7.93
2019-04-25T12:32:47.930Z,3.37
2019-04-25T12:35:14.983Z,7.70
2019-04-25T12:37:45.646Z,7.67
2019-04-25T12:40:14.044Z,4.23
2019-04-25T12:42:42.195Z,4.90
2019-04-25T12:45:09.384Z,4.20
2019-04-25T12:47:38.802Z,4.78
2019-04-25T12:50:09.363Z,2.40
2019-04-25T12:52:37.554Z,4.47
2019-04-25T12:55:05.333Z,3.07
2019-04-25T12:57:35.075Z,2.60
2019-04-25T13:00:04.058Z,3.30
2019-04-25T13:02:36.348Z,2.70
2019-04-25T13:05:01.873Z,4.47
2019-04-25T13:07:29.099Z,4.47
2019-04-25T13:09:57.206Z,2.57
2019-04-25T13:12:26.778Z,5.62
2019-04-25T13:14:54.547Z,5.43
2019-04-25T13:17:24.204Z,3.73
2019-04-25T13:19:51.387Z,5.27
2019-04-25T13:22:20.223Z,4.10
2019-04-25T13:24:49.538Z,3.73
2019-04-25T13:27:18.789Z,3.43
2019-04-25T13:29:47.856Z,2.37
2019-04-25T13:32:14.677Z,4.10
2019-04-25T13:34:41.554Z,3.50
2019-04-25T13:37:08.950Z,3.87
2019-04-25T13:39:37.871Z,4.07
2019-04-25T13:42:07.961Z,5.47
2019-04-25T13:44:36.088Z,6.30
2019-04-25T13:47:04.974Z,3.03
2019-04-25T13:49:37.381Z,5.60
2019-04-25T13:52:05.890Z,6.13
2019-04-25T13:54:50.366Z,4.30
2019-04-25T13:57:18.235Z,5.70
2019-04-25T13:59:49.394Z,4.80
2019-04-25T14:02:20.271Z,6.10
2019-04-25T14:04:48.756Z,5.30
2019-04-25T14:07:19.170Z,5.73
2019-04-25T14:09:48.696Z,5.15
2019-04-25T14:12:17.148Z,7.60
2019-04-25T14:14:44.346Z,7.20
2019-04-25T14:17:13.807Z,3.60
2019-04-25T14:19:40.599Z,8.48
2019-04-25T14:22:10.664Z,3.43
2019-04-25T14:24:39.435Z,3.83
2019-04-25T14:27:06.594Z,4.40
2019-04-25T14:29:35.615Z,7.00
2019-04-25T14:32:06.209Z,7.87
2019-04-25T14:34:33.785Z,9.70
2019-04-25T14:37:03.066Z,6.13
2019-04-25T14:39:32.302Z,13.53
2019-04-25T14:42:00.128Z,6.00
2019-04-25T14:44:31.259Z,5.07
2019-04-25T14:46:58.590Z,4.83
2019-04-25T14:49:26.304Z,8.83
2019-04-25T14:54:26.375Z,4.70
2019-04-25T14:56:53.519Z,7.87
2019-04-25T14:59:24.456Z,14.57
2019-04-25T15:01:51.715Z,12.33
2019-04-25T15:04:19.606Z,7.70
2019-04-25T15:06:48.851Z,6.10
2019-04-25T15:09:17.677Z,6.70
2019-04-25T15:11:44.357Z,6.17
2019-04-25T15:14:13.294Z,14.53
2019-04-25T15:16:42.486Z,9.17
2019-04-25T15:19:09.350Z,5.90
2019-04-25T15:21:38.907Z,8.33
2019-04-25T15:24:08.375Z,7.75
2019-04-25T15:26:35.597Z,10.75
2019-04-25T15:29:03.521Z,10.00
2019-04-25T15:31:32.024Z,8.07
2019-04-25T15:34:02.241Z,6.80
2019-04-25T15:36:28.512Z,6.57
2019-04-25T15:38:58.774Z,9.45
2019-04-25T15:41:28.317Z,6.77
2019-04-25T15:43:58.050Z,8.83
2019-04-25T15:46:30.177Z,7.17
2019-04-25T15:49:00.472Z,14.70
2019-04-25T15:51:30.467Z,11.80
2019-04-25T15:53:58.438Z,7.50
2019-04-25T15:56:25.685Z,11.85
2019-04-25T15:58:56.600Z,7.17
2019-04-25T16:01:26.488Z,12.20
2019-04-25T16:03:53.325Z,8.87
2019-04-25T16:06:23.826Z,7.80
2019-04-25T16:08:52.198Z,11.00
2019-04-25T16:11:19.376Z,7.57
2019-04-25T16:13:48.498Z,8.28
2019-04-25T16:16:15.604Z,15.57
2019-04-25T16:18:44.610Z,9.30
2019-04-25T16:21:14.850Z,12.40
2019-04-25T16:23:44.998Z,7.10
2019-04-25T16:26:11.808Z,17.20
2019-04-25T16:28:40.006Z,12.83
2019-04-25T16:31:08.101Z,12.83
2019-04-25T16:33:35.665Z,9.60
2019-04-25T16:36:21.956Z,9.35
2019-04-25T16:38:50.087Z,11.03
2019-04-25T16:41:18.801Z,9.20
2019-04-25T16:43:48.141Z,11.43
2019-04-25T16:46:14.986Z,7.07
2019-04-25T16:48:44.475Z,5.70
2019-04-25T16:51:18.158Z,5.33
2019-04-25T16:53:45.024Z,10.63
2019-04-25T16:56:16.455Z,10.07
2019-04-25T16:58:45.461Z,6.30
2019-04-25T17:01:15.060Z,7.73
2019-04-25T17:03:42.005Z,7.57
2019-04-25T17:06:10.712Z,12.80
2019-04-25T17:08:40.300Z,5.67
2019-04-25T17:11:07.184Z,13.87
2019-04-25T17:13:38.015Z,10.35
2019-04-25T17:16:06.357Z,10.23
2019-04-25T17:18:36.540Z,7.97
2019-04-25T17:21:05.818Z,7.90
2019-04-25T17:23:34.787Z,10.65
2019-04-25T17:26:01.671Z,8.30
2019-04-25T17:28:30.318Z,7.93
2019-04-25T17:30:58.421Z,7.10
2019-04-25T17:33:28.953Z,6.80
2019-04-25T17:35:55.523Z,7.78
2019-04-25T17:38:23.619Z,7.97
2019-04-25T17:40:50.887Z,6.77
2019-04-25T17:43:19.863Z,12.37
2019-04-25T17:45:47.515Z,8.63
2019-04-25T17:48:16.699Z,6.97
2019-04-25T17:50:45.935Z,8.55
2019-04-25T17:53:13.113Z,5.28
2019-04-25T17:55:43.827Z,7.40
2019-04-25T17:58:12.944Z,7.97
2019-04-25T18:00:39.710Z,5.60
2019-04-25T18:03:09.144Z,7.07
2019-04-25T18:05:39.267Z,7.50
2019-04-25T18:08:10.522Z,8.43
2019-04-25T18:10:41.923Z,7.97
2019-04-25T18:13:10.531Z,5.50
2019-04-25T18:15:41.726Z,6.58
2019-04-25T18:18:11.356Z,7.97
2019-04-25T18:20:43.142Z,4.90
2019-04-25T18:23:10.021Z,6.65
2019-04-25T18:25:39.129Z,8.17
2019-04-25T18:28:07.845Z,7.23
2019-04-25T18:30:36.936Z,9.70
2019-04-25T18:33:10.579Z,7.53
2019-04-25T18:35:39.170Z,5.70
2019-04-25T18:38:07.344Z,7.20
2019-04-25T18:43:14.929Z,10.93
2019-04-25T18:45:52.330Z,9.84
2019-04-25T18:48:29.572Z,9.57
2019-04-25T18:50:59.743Z,6.45
2019-04-25T18:53:27.492Z,10.37
2019-04-25T18:55:56.607Z,6.60
2019-04-25T18:58:25.686Z,7.07
2019-04-25T19:00:52.818Z,10.03
2019-04-25T19:03:25.911Z,7.97
2019-04-25T19:05:51.572Z,12.60
2019-04-25T19:08:21.426Z,7.47
2019-04-25T19:10:48.493Z,10.26
2019-04-25T19:13:18.744Z,4.60
2019-04-25T19:15:49.599Z,7.03
2019-04-25T19:18:17.323Z,4.72
2019-04-25T19:20:46.034Z,4.27
2019-04-25T19:23:16.690Z,7.80
2019-04-25T19:25:48.551Z,9.30
2019-04-25T19:31:07.219Z,8.73
2019-04-25T19:33:35.800Z,6.93
2019-04-25T19:36:03.015Z,4.23
2019-04-25T19:38:33.349Z,6.03
2019-04-25T19:41:02.543Z,7.17
2019-04-25T19:43:34.222Z,7.43
2019-04-25T19:46:06.505Z,9.15
2019-04-25T19:48:34.159Z,6.63
2019-04-25T19:51:02.345Z,6.07
2019-04-25T19:56:15.967Z,6.03
2019-04-25T19:58:45.004Z,7.10
2019-04-25T20:01:15.182Z,10.20
2019-04-25T20:03:54.990Z,5.77
2019-04-25T20:06:15.017Z,7.43
2019-04-25T20:08:42.465Z,10.10
2019-04-25T20:11:18.284Z,6.46
2019-04-25T20:13:49.243Z,8.65
2019-04-25T20:16:21.371Z,6.10
2019-04-25T20:18:51.906Z,6.87
2019-04-25T20:21:26.033Z,9.60
2019-04-25T20:23:54.460Z,7.10
2019-04-25T20:26:24.706Z,8.53
2019-04-25T20:28:53.558Z,8.63
2019-04-25T20:31:26.793Z,10.57
2019-04-25T20:34:05.402Z,7.03
2019-04-25T20:36:28.720Z,10.03
2019-04-25T20:38:57.910Z,6.93
2019-04-25T20:41:32.905Z,7.87
2019-04-25T20:44:01.817Z,6.78
2019-04-25T20:46:31.009Z,7.33
2019-04-25T20:49:03.534Z,7.70
2019-04-25T20:51:33.293Z,5.73
2019-04-25T20:54:02.678Z,7.05
2019-04-25T20:56:32.802Z,3.83
2019-04-25T20:59:00.957Z,8.43
2019-04-25T21:01:30.006Z,12.93
2019-04-25T21:04:13.282Z,5.80
2019-04-25T21:06:40.081Z,4.27
2019-04-25T21:09:07.201Z,4.70
2019-04-25T21:11:41.688Z,5.03
2019-04-25T21:14:07.533Z,7.00
2019-04-25T21:19:02.724Z,5.90
2019-04-25T21:21:33.849Z,5.07
2019-04-25T21:24:09.695Z,7.55
2019-04-25T21:26:40.389Z,6.75
2019-04-25T21:29:10.932Z,7.10
2019-04-25T21:31:45.191Z,5.05
2019-04-25T21:34:25.478Z,4.55
2019-04-25T21:39:19.414Z,5.40
2019-04-25T21:41:48.527Z,6.20
2019-04-25T21:44:17.716Z,6.00
2019-04-25T21:46:48.529Z,7.00
2019-04-25T21:49:16.655Z,12.53
2019-04-25T21:51:45.289Z,5.90
2019-04-25T21:54:15.764Z,3.70
2019-04-25T21:56:43.296Z,5.60
2019-04-25T22:01:45.210Z,7.65
2019-04-25T22:04:20.052Z,5.70
2019-04-25T22:06:46.979Z,7.33
2019-04-25T22:09:14.775Z,8.43
2019-04-25T22:11:42.202Z,8.53
2019-04-25T22:14:12.875Z,7.35
2019-04-25T22:16:41.238Z,5.60
2019-04-25T22:19:10.506Z,11.53
2019-04-25T22:21:41.143Z,7.73
2019-04-25T22:24:14.814Z,8.00
2019-04-25T23:08:38.140Z,9.68
2019-04-25T23:11:08.845Z,9.33
2019-04-25T23:13:37.360Z,8.60
2019-04-25T23:16:05.096Z,9.13
2019-04-25T23:20:58.867Z,7.93
2019-04-25T23:23:32.232Z,9.45
2019-04-25T23:25:57.127Z,6.73
2019-04-25T23:28:25.958Z,5.77
2019-04-25T23:30:54.270Z,9.00
2019-04-25T23:33:23.871Z,11.05
2019-04-25T23:35:52.947Z,9.37
2019-04-25T23:38:22.086Z,9.15
2019-04-25T23:40:52.222Z,8.93
2019-04-25T23:43:19.592Z,10.47
2019-04-25T23:45:46.668Z,5.63
2019-04-25T23:48:14.477Z,6.67
2019-04-25T23:50:45.642Z,7.63
2019-04-25T23:53:21.201Z,10.10
2019-04-25T23:55:50.355Z,8.30
2019-04-25T23:58:18.316Z,10.00
